SWA371 KSAN-KABQ
Flight info
| Callsign | SWA371 |
|---|---|
| Flight time | N/A |
| Altitude | 39000 |
| Route | ZZOOO4 TGOLD PXR J18 SJN BRRTO BRRTO1 |
| Aircraft | B737/M-SDE2E3FGHIRWXY/LB1 |
Departure
| Time | 2026-05-04 01:30 |
|---|---|
| Airport | San Diego International Airport (KSAN) |
Arrival
| Time | N/A |
|---|---|
| Airport | Albuquerque International Sunport (KABQ) |
| Time | Latitude | Longitude | Altitude | Speed | Heading |
|---|---|---|---|---|---|
| 2026-05-04 01:03 | 32.73394 | -117.20057 | 20 ft | 0 kts | 254° |
| 2026-05-04 01:16 | 32.73396 | -117.20046 | 20 ft | 2 kts | 254° |
| 2026-05-04 01:16 | 32.73400 | -117.20029 | 20 ft | 2 kts | 255° |
| 2026-05-04 01:17 | 32.73404 | -117.20012 | 20 ft | 2 kts | 254° |
| 2026-05-04 01:17 | 32.73409 | -117.19995 | 20 ft | 2 kts | 255° |
| 2026-05-04 01:17 | 32.73412 | -117.19978 | 20 ft | 2 kts | 254° |
| 2026-05-04 01:17 | 32.73416 | -117.19961 | 20 ft | 2 kts | 255° |
| 2026-05-04 01:18 | 32.73420 | -117.19944 | 20 ft | 2 kts | 254° |
| 2026-05-04 01:18 | 32.73425 | -117.19927 | 20 ft | 2 kts | 255° |
| 2026-05-04 01:18 | 32.73428 | -117.19910 | 20 ft | 2 kts | 254° |
| 2026-05-04 01:18 | 32.73431 | -117.19898 | 20 ft | 0 kts | 255° |
| 2026-05-04 01:19 | 32.73438 | -117.19883 | 20 ft | 2 kts | 219° |
| 2026-05-04 01:19 | 32.73451 | -117.19875 | 20 ft | 2 kts | 186° |
| 2026-05-04 01:19 | 32.73466 | -117.19878 | 20 ft | 2 kts | 151° |
| 2026-05-04 01:19 | 32.73477 | -117.19891 | 20 ft | 2 kts | 116° |
| 2026-05-04 01:20 | 32.73479 | -117.19898 | 20 ft | 1 kts | 99° |
| 2026-05-04 01:20 | 32.73480 | -117.19903 | 20 ft | 0 kts | 104° |
| 2026-05-04 01:22 | 32.73480 | -117.19902 | 20 ft | 0 kts | 104° |
| 2026-05-04 01:24 | 32.73476 | -117.19885 | 20 ft | 7 kts | 104° |
| 2026-05-04 01:24 | 32.73443 | -117.19749 | 21 ft | 26 kts | 106° |
| 2026-05-04 01:24 | 32.73383 | -117.19502 | 24 ft | 31 kts | 107° |
| 2026-05-04 01:24 | 32.73325 | -117.19268 | 23 ft | 21 kts | 108° |
| 2026-05-04 01:25 | 32.73279 | -117.19072 | 23 ft | 30 kts | 107° |
| 2026-05-04 01:25 | 32.73207 | -117.18776 | 21 ft | 43 kts | 105° |
| 2026-05-04 01:25 | 32.73111 | -117.18389 | 21 ft | 45 kts | 105° |
| 2026-05-04 01:25 | 32.73089 | -117.18288 | 21 ft | 2 kts | 105° |
| 2026-05-04 01:26 | 32.73072 | -117.18218 | 21 ft | 14 kts | 106° |
| 2026-05-04 01:26 | 32.73031 | -117.18054 | 21 ft | 25 kts | 107° |
| 2026-05-04 01:26 | 32.72982 | -117.17853 | 23 ft | 25 kts | 107° |
| 2026-05-04 01:26 | 32.72950 | -117.17711 | 25 ft | 9 kts | 97° |
| 2026-05-04 01:27 | 32.72956 | -117.17663 | 26 ft | 0 kts | 71° |
| 2026-05-04 01:29 | 32.72984 | -117.17627 | 27 ft | 7 kts | 16° |
| 2026-05-04 01:29 | 32.73038 | -117.17655 | 27 ft | 13 kts | 287° |
| 2026-05-04 01:29 | 32.73042 | -117.17670 | 27 ft | 0 kts | 279° |
| 2026-05-04 01:29 | 32.73046 | -117.17690 | 27 ft | 9 kts | 284° |
| 2026-05-04 01:30 | 32.73149 | -117.18140 | 21 ft | 115 kts | 284° |
| 2026-05-04 01:30 | 32.73459 | -117.19335 | 369 ft | 170 kts | 288° |
| 2026-05-04 01:30 | 32.73841 | -117.20716 | 1209 ft | 191 kts | 285° |
| 2026-05-04 01:30 | 32.74199 | -117.22269 | 2146 ft | 205 kts | 284° |
| 2026-05-04 01:31 | 32.74587 | -117.23955 | 2989 ft | 223 kts | 285° |
| 2026-05-04 01:31 | 32.75021 | -117.25763 | 3908 ft | 236 kts | 285° |
| 2026-05-04 01:31 | 32.75478 | -117.27645 | 4758 ft | 243 kts | 285° |
| 2026-05-04 01:31 | 32.75947 | -117.29575 | 4967 ft | 244 kts | 284° |
| 2026-05-04 01:32 | 32.76413 | -117.31484 | 5030 ft | 237 kts | 284° |
| 2026-05-04 01:32 | 32.76697 | -117.33432 | 5039 ft | 234 kts | 265° |
| 2026-05-04 01:32 | 32.76346 | -117.35272 | 5356 ft | 236 kts | 245° |
| 2026-05-04 01:32 | 32.75402 | -117.36874 | 5592 ft | 238 kts | 226° |
| 2026-05-04 01:33 | 32.74103 | -117.38128 | 5831 ft | 241 kts | 214° |
| 2026-05-04 01:33 | 32.72529 | -117.38877 | 6049 ft | 258 kts | 190° |
| 2026-05-04 01:33 | 32.70758 | -117.38689 | 7199 ft | 262 kts | 168° |
| 2026-05-04 01:33 | 32.69119 | -117.37959 | 8570 ft | 254 kts | 158° |
| 2026-05-04 01:34 | 32.67764 | -117.36662 | 9748 ft | 258 kts | 133° |
| 2026-05-04 01:34 | 32.66964 | -117.34834 | 10896 ft | 256 kts | 118° |
| 2026-05-04 01:34 | 32.66303 | -117.32894 | 11922 ft | 251 kts | 118° |
| 2026-05-04 01:34 | 32.65626 | -117.31017 | 12822 ft | 252 kts | 120° |
| 2026-05-04 01:35 | 32.64886 | -117.29098 | 13504 ft | 265 kts | 122° |
| 2026-05-04 01:35 | 32.64084 | -117.27060 | 14125 ft | 283 kts | 122° |
| 2026-05-04 01:35 | 32.63331 | -117.24837 | 14835 ft | 301 kts | 114° |
| 2026-05-04 01:35 | 32.62840 | -117.22344 | 15416 ft | 324 kts | 104° |
| 2026-05-04 01:36 | 32.62550 | -117.19620 | 16005 ft | 344 kts | 101° |
| 2026-05-04 01:36 | 32.62328 | -117.16705 | 16581 ft | 363 kts | 99° |
| 2026-05-04 01:36 | 32.62154 | -117.13675 | 17201 ft | 380 kts | 94° |
| 2026-05-04 01:36 | 32.62329 | -117.10458 | 17709 ft | 402 kts | 83° |
| 2026-05-04 01:37 | 32.62965 | -117.07180 | 18260 ft | 419 kts | 75° |
| 2026-05-04 01:37 | 32.63894 | -117.03842 | 18746 ft | 437 kts | 70° |
| 2026-05-04 01:37 | 32.64216 | -117.02799 | 18879 ft | 442 kts | 70° |
| 2026-05-04 01:37 | 32.64829 | -117.00886 | 19113 ft | 452 kts | 69° |
| 2026-05-04 01:38 | 32.65928 | -116.97336 | 19601 ft | 467 kts | 71° |
| 2026-05-04 01:38 | 32.66777 | -116.93545 | 19919 ft | 484 kts | 82° |
| 2026-05-04 01:38 | 32.67216 | -116.89532 | 20110 ft | 491 kts | 87° |
| 2026-05-04 01:38 | 32.67334 | -116.87331 | 20095 ft | 487 kts | 89° |
| 2026-05-04 01:39 | 32.67404 | -116.84748 | 20089 ft | 482 kts | 92° |
| 2026-05-04 01:39 | 32.67431 | -116.80795 | 20093 ft | 482 kts | 92° |
| 2026-05-04 01:39 | 32.67424 | -116.76817 | 20086 ft | 485 kts | 93° |
| 2026-05-04 01:39 | 32.67403 | -116.72842 | 20082 ft | 479 kts | 94° |
| 2026-05-04 01:40 | 32.67319 | -116.68894 | 20072 ft | 480 kts | 95° |
| 2026-05-04 01:40 | 32.67202 | -116.64973 | 20080 ft | 479 kts | 95° |
| 2026-05-04 01:40 | 32.67073 | -116.60960 | 20068 ft | 485 kts | 95° |
| 2026-05-04 01:40 | 32.66953 | -116.56985 | 20056 ft | 480 kts | 95° |
| 2026-05-04 01:41 | 32.66846 | -116.53021 | 20054 ft | 481 kts | 95° |
| 2026-05-04 01:41 | 32.66745 | -116.49054 | 20046 ft | 481 kts | 95° |
| 2026-05-04 01:41 | 32.66662 | -116.45126 | 20080 ft | 479 kts | 94° |
| 2026-05-04 01:41 | 32.66672 | -116.41131 | 20289 ft | 486 kts | 90° |
| 2026-05-04 01:42 | 32.66872 | -116.37167 | 20492 ft | 488 kts | 88° |
| 2026-05-04 01:42 | 32.67192 | -116.33178 | 20687 ft | 487 kts | 86° |
| 2026-05-04 01:42 | 32.67574 | -116.29162 | 20885 ft | 494 kts | 85° |
| 2026-05-04 01:42 | 32.67985 | -116.25117 | 21090 ft | 496 kts | 86° |
| 2026-05-04 01:43 | 32.68403 | -116.21043 | 21294 ft | 494 kts | 85° |
| 2026-05-04 01:43 | 32.68813 | -116.16974 | 21499 ft | 498 kts | 85° |
| 2026-05-04 01:43 | 32.69213 | -116.12869 | 21695 ft | 502 kts | 85° |
| 2026-05-04 01:43 | 32.69601 | -116.08769 | 21895 ft | 499 kts | 85° |
| 2026-05-04 01:44 | 32.69983 | -116.04655 | 22092 ft | 505 kts | 86° |
| 2026-05-04 01:44 | 32.70356 | -116.00575 | 22309 ft | 503 kts | 85° |
| 2026-05-04 01:44 | 32.70739 | -115.96408 | 22510 ft | 505 kts | 85° |
| 2026-05-04 01:44 | 32.71126 | -115.92233 | 22721 ft | 512 kts | 86° |
| 2026-05-04 01:45 | 32.71515 | -115.88030 | 22923 ft | 513 kts | 85° |
| 2026-05-04 01:45 | 32.71904 | -115.83813 | 23128 ft | 514 kts | 86° |
| 2026-05-04 01:45 | 32.72678 | -115.75409 | 23541 ft | 518 kts | 85° |
| 2026-05-04 01:46 | 32.73067 | -115.71134 | 23762 ft | 519 kts | 86° |
| 2026-05-04 01:46 | 32.73452 | -115.66881 | 23977 ft | 523 kts | 85° |
| 2026-05-04 01:46 | 32.73843 | -115.62539 | 24176 ft | 528 kts | 84° |
| 2026-05-04 01:46 | 32.74229 | -115.58243 | 24393 ft | 528 kts | 85° |
| 2026-05-04 01:47 | 32.74617 | -115.53896 | 24597 ft | 531 kts | 85° |
| 2026-05-04 01:47 | 32.74999 | -115.49530 | 24808 ft | 534 kts | 86° |
| 2026-05-04 01:47 | 32.75270 | -115.45148 | 25013 ft | 531 kts | 88° |
| 2026-05-04 01:47 | 32.75421 | -115.40772 | 25221 ft | 534 kts | 90° |
| 2026-05-04 01:48 | 32.75504 | -115.36354 | 25427 ft | 535 kts | 90° |
| 2026-05-04 01:48 | 32.75557 | -115.31983 | 25625 ft | 536 kts | 91° |
| 2026-05-04 01:48 | 32.75604 | -115.27525 | 25838 ft | 537 kts | 92° |
| 2026-05-04 01:48 | 32.75653 | -115.23100 | 26051 ft | 537 kts | 90° |
| 2026-05-04 01:49 | 32.75711 | -115.18698 | 26249 ft | 541 kts | 90° |
| 2026-05-04 01:49 | 32.75779 | -115.14204 | 26458 ft | 537 kts | 91° |
| 2026-05-04 01:49 | 32.75856 | -115.09796 | 26666 ft | 537 kts | 90° |
| 2026-05-04 01:49 | 32.75938 | -115.05348 | 26876 ft | 542 kts | 89° |
| 2026-05-04 01:50 | 32.76000 | -115.02206 | 27021 ft | 542 kts | 89° |
| 2026-05-04 01:50 | 32.76082 | -114.98109 | 27212 ft | 543 kts | 90° |
| 2026-05-04 01:50 | 32.76172 | -114.93643 | 27429 ft | 540 kts | 89° |
| 2026-05-04 01:51 | 32.76259 | -114.89178 | 27649 ft | 539 kts | 90° |
| 2026-05-04 01:51 | 32.76346 | -114.84716 | 27853 ft | 543 kts | 90° |
| 2026-05-04 01:51 | 32.76434 | -114.80236 | 28076 ft | 543 kts | 89° |
| 2026-05-04 01:51 | 32.76521 | -114.75787 | 28244 ft | 543 kts | 90° |
| 2026-05-04 01:52 | 32.76687 | -114.66869 | 28283 ft | 540 kts | 90° |
| 2026-05-04 01:52 | 32.76848 | -114.57993 | 28358 ft | 546 kts | 89° |
| 2026-05-04 01:53 | 32.76920 | -114.53457 | 28862 ft | 554 kts | 89° |
| 2026-05-04 01:53 | 32.76986 | -114.48910 | 29939 ft | 547 kts | 90° |
| 2026-05-04 01:53 | 32.77045 | -114.44451 | 30899 ft | 542 kts | 90° |
| 2026-05-04 01:53 | 32.77102 | -114.39919 | 31209 ft | 553 kts | 91° |
| 2026-05-04 01:54 | 32.77158 | -114.35345 | 31771 ft | 558 kts | 91° |
| 2026-05-04 01:54 | 32.77213 | -114.30772 | 32387 ft | 559 kts | 91° |
| 2026-05-04 01:54 | 32.77266 | -114.26141 | 32987 ft | 560 kts | 91° |
| 2026-05-04 01:54 | 32.77318 | -114.21555 | 33662 ft | 561 kts | 91° |
| 2026-05-04 01:55 | 32.77371 | -114.16888 | 34382 ft | 562 kts | 90° |
| 2026-05-04 01:55 | 32.77422 | -114.12275 | 34790 ft | 565 kts | 91° |
| 2026-05-04 01:55 | 32.77517 | -114.03010 | 34807 ft | 555 kts | 92° |
| 2026-05-04 01:56 | 32.77993 | -113.93802 | 34809 ft | 559 kts | 83° |
| 2026-05-04 01:56 | 32.78507 | -113.89253 | 34978 ft | 554 kts | 81° |
| 2026-05-04 01:56 | 32.79138 | -113.84631 | 35191 ft | 559 kts | 79° |
| 2026-05-04 01:57 | 32.79821 | -113.80079 | 35399 ft | 556 kts | 79° |
| 2026-05-04 01:57 | 32.80535 | -113.75511 | 35611 ft | 557 kts | 78° |
| 2026-05-04 01:57 | 32.81394 | -113.71085 | 35818 ft | 553 kts | 72° |
| 2026-05-04 01:57 | 32.82581 | -113.66743 | 36025 ft | 554 kts | 65° |
| 2026-05-04 01:58 | 32.84075 | -113.62540 | 36234 ft | 544 kts | 59° |
| 2026-05-04 01:58 | 32.85744 | -113.58510 | 36494 ft | 548 kts | 57° |
| 2026-05-04 01:58 | 32.87513 | -113.54454 | 37084 ft | 548 kts | 57° |
| 2026-05-04 01:58 | 32.89245 | -113.50462 | 37864 ft | 545 kts | 58° |
| 2026-05-04 01:59 | 32.90943 | -113.46432 | 38576 ft | 543 kts | 58° |
| 2026-05-04 01:59 | 32.92593 | -113.42383 | 38793 ft | 551 kts | 60° |
| 2026-05-04 01:59 | 32.95825 | -113.34057 | 38804 ft | 548 kts | 61° |
| 2026-05-04 02:00 | 32.98905 | -113.25775 | 38802 ft | 551 kts | 61° |
| 2026-05-04 02:00 | 33.01977 | -113.17417 | 38808 ft | 554 kts | 62° |
| 2026-05-04 02:01 | 33.05058 | -113.09013 | 38823 ft | 553 kts | 61° |
| 2026-05-04 02:01 | 33.08110 | -113.00683 | 38842 ft | 550 kts | 61° |
| 2026-05-04 02:02 | 33.11167 | -112.92338 | 38841 ft | 553 kts | 60° |
| 2026-05-04 02:02 | 33.14238 | -112.83935 | 38840 ft | 553 kts | 62° |
| 2026-05-04 02:03 | 33.17310 | -112.75521 | 38836 ft | 555 kts | 60° |
| 2026-05-04 02:03 | 33.20364 | -112.67123 | 38842 ft | 551 kts | 61° |
| 2026-05-04 02:04 | 33.23431 | -112.58690 | 38846 ft | 552 kts | 60° |
| 2026-05-04 02:04 | 33.26486 | -112.50283 | 38851 ft | 553 kts | 60° |
| 2026-05-04 02:05 | 33.29531 | -112.41874 | 38870 ft | 554 kts | 60° |
| 2026-05-04 02:05 | 33.32590 | -112.33421 | 38885 ft | 554 kts | 60° |
| 2026-05-04 02:06 | 33.35627 | -112.24980 | 38895 ft | 555 kts | 60° |
| 2026-05-04 02:06 | 33.38649 | -112.16545 | 38879 ft | 551 kts | 60° |
| 2026-05-04 02:07 | 33.41657 | -112.08122 | 38862 ft | 550 kts | 60° |
| 2026-05-04 02:07 | 33.44635 | -111.99746 | 38859 ft | 548 kts | 60° |
| 2026-05-04 02:08 | 33.47644 | -111.91291 | 38864 ft | 550 kts | 61° |
| 2026-05-04 02:08 | 33.50644 | -111.82862 | 38865 ft | 552 kts | 59° |
| 2026-05-04 02:09 | 33.53631 | -111.74423 | 38874 ft | 549 kts | 59° |
| 2026-05-04 02:09 | 33.56569 | -111.66077 | 38893 ft | 547 kts | 60° |
| 2026-05-04 02:10 | 33.59577 | -111.57584 | 38909 ft | 553 kts | 58° |
| 2026-05-04 02:10 | 33.62542 | -111.49131 | 38947 ft | 543 kts | 59° |
| 2026-05-04 02:11 | 33.65472 | -111.40777 | 38971 ft | 547 kts | 59° |
| 2026-05-04 02:11 | 33.68437 | -111.32311 | 39003 ft | 551 kts | 60° |
| 2026-05-04 02:12 | 33.71364 | -111.23912 | 39013 ft | 548 kts | 59° |
| 2026-05-04 02:12 | 33.74316 | -111.15435 | 39028 ft | 552 kts | 59° |
| 2026-05-04 02:13 | 33.77260 | -111.06947 | 39050 ft | 549 kts | 60° |
| 2026-05-04 02:13 | 33.80184 | -110.98480 | 39088 ft | 549 kts | 59° |
| 2026-05-04 02:14 | 33.83074 | -110.90082 | 39369 ft | 543 kts | 59° |
| 2026-05-04 02:14 | 33.85986 | -110.81606 | 39624 ft | 545 kts | 59° |
| 2026-05-04 02:15 | 33.88882 | -110.73174 | 39740 ft | 547 kts | 59° |
| 2026-05-04 02:15 | 33.91743 | -110.64798 | 39686 ft | 541 kts | 59° |
| 2026-05-04 02:16 | 33.94634 | -110.56359 | 39762 ft | 545 kts | 60° |
| 2026-05-04 02:16 | 33.96058 | -110.52178 | 39996 ft | 541 kts | 59° |
| 2026-05-04 02:16 | 33.97480 | -110.47990 | 40265 ft | 539 kts | 60° |
| 2026-05-04 02:17 | 34.00320 | -110.39644 | 40304 ft | 539 kts | 60° |
| 2026-05-04 02:17 | 34.03130 | -110.31344 | 40217 ft | 536 kts | 59° |
| 2026-05-04 02:18 | 34.05931 | -110.23039 | 40114 ft | 534 kts | 60° |
| 2026-05-04 02:18 | 34.08733 | -110.14742 | 40407 ft | 540 kts | 61° |
| 2026-05-04 02:19 | 34.11564 | -110.06335 | 39971 ft | 539 kts | 60° |
| 2026-05-04 02:19 | 34.12971 | -110.02138 | 39431 ft | 536 kts | 60° |
| 2026-05-04 02:19 | 34.14366 | -109.97961 | 39189 ft | 534 kts | 59° |
| 2026-05-04 02:20 | 34.17143 | -109.89650 | 39183 ft | 537 kts | 60° |
| 2026-05-04 02:20 | 34.19951 | -109.81251 | 39188 ft | 543 kts | 60° |
| 2026-05-04 02:21 | 34.22737 | -109.72853 | 39225 ft | 538 kts | 61° |
| 2026-05-04 02:21 | 34.25519 | -109.64460 | 39224 ft | 536 kts | 60° |
| 2026-05-04 02:22 | 34.26908 | -109.60268 | 39009 ft | 539 kts | 61° |
| 2026-05-04 02:22 | 34.28317 | -109.56077 | 38556 ft | 538 kts | 60° |
| 2026-05-04 02:22 | 34.29710 | -109.51952 | 38107 ft | 533 kts | 59° |
| 2026-05-04 02:22 | 34.31115 | -109.47810 | 37646 ft | 531 kts | 60° |
| 2026-05-04 02:23 | 34.32526 | -109.43662 | 37098 ft | 533 kts | 61° |
| 2026-05-04 02:23 | 34.33940 | -109.39510 | 36552 ft | 530 kts | 61° |
| 2026-05-04 02:23 | 34.35342 | -109.35375 | 36001 ft | 527 kts | 60° |
| 2026-05-04 02:23 | 34.36711 | -109.31326 | 35464 ft | 526 kts | 61° |
| 2026-05-04 02:24 | 34.38086 | -109.27247 | 34926 ft | 525 kts | 62° |
| 2026-05-04 02:24 | 34.39474 | -109.23126 | 34380 ft | 526 kts | 62° |
| 2026-05-04 02:24 | 34.40819 | -109.19037 | 33841 ft | 525 kts | 64° |
| 2026-05-04 02:24 | 34.41999 | -109.14873 | 33327 ft | 528 kts | 69° |
| 2026-05-04 02:25 | 34.42929 | -109.10606 | 32873 ft | 529 kts | 73° |
| 2026-05-04 02:25 | 34.43615 | -109.06164 | 32404 ft | 531 kts | 79° |
| 2026-05-04 02:25 | 34.44044 | -109.01742 | 31947 ft | 530 kts | 84° |
| 2026-05-04 02:25 | 34.44230 | -108.97311 | 31485 ft | 528 kts | 88° |
| 2026-05-04 02:26 | 34.44185 | -108.92882 | 31028 ft | 527 kts | 92° |
| 2026-05-04 02:26 | 34.43915 | -108.88444 | 30564 ft | 527 kts | 96° |
| 2026-05-04 02:26 | 34.43427 | -108.84121 | 30108 ft | 524 kts | 101° |
| 2026-05-04 02:26 | 34.42718 | -108.79819 | 29641 ft | 519 kts | 104° |
| 2026-05-04 02:27 | 34.41809 | -108.75627 | 29137 ft | 518 kts | 109° |
| 2026-05-04 02:27 | 34.40704 | -108.71496 | 28617 ft | 517 kts | 112° |
| 2026-05-04 02:27 | 34.39417 | -108.67397 | 28103 ft | 517 kts | 115° |
| 2026-05-04 02:27 | 34.38005 | -108.63470 | 27598 ft | 515 kts | 118° |
| 2026-05-04 02:28 | 34.36411 | -108.59550 | 27072 ft | 514 kts | 120° |
| 2026-05-04 02:28 | 34.34697 | -108.55780 | 26558 ft | 512 kts | 123° |
| 2026-05-04 02:28 | 34.33477 | -108.53323 | 26223 ft | 510 kts | 126° |
| 2026-05-04 02:28 | 34.30855 | -108.48580 | 25541 ft | 510 kts | 129° |
| 2026-05-04 02:29 | 34.28740 | -108.45187 | 25035 ft | 504 kts | 131° |
| 2026-05-04 02:29 | 34.26520 | -108.41947 | 24527 ft | 500 kts | 134° |
| 2026-05-04 02:29 | 34.24251 | -108.38834 | 24080 ft | 490 kts | 133° |
| 2026-05-04 02:29 | 34.22456 | -108.35404 | 23812 ft | 479 kts | 117° |
| 2026-05-04 02:30 | 34.21507 | -108.31662 | 23557 ft | 467 kts | 100° |
| 2026-05-04 02:30 | 34.21453 | -108.27820 | 23303 ft | 451 kts | 81° |
| 2026-05-04 02:30 | 34.22281 | -108.24267 | 23047 ft | 429 kts | 61° |
| 2026-05-04 02:30 | 34.23826 | -108.21286 | 22796 ft | 408 kts | 46° |